sensor_id;sensor_type;location;lat;lon;timestamp;pressure;altitude;pressure_sealevel;temperature;humidity
43770;BME280;6597;52.218;9.882;2023-02-24T00:01:34;100511.06;;;3.73;100.00
43770;BME280;6597;52.218;9.882;2023-02-24T00:04:04;100503.38;;;3.66;100.00
43770;BME280;6597;52.218;9.882;2023-02-24T00:06:33;100506.78;;;3.71;100.00
43770;BME280;6597;52.218;9.882;2023-02-24T00:09:02;100505.06;;;3.70;100.00
43770;BME280;6597;52.218;9.882;2023-02-24T00:11:32;100503.34;;;3.67;100.00
43770;BME280;6597;52.218;9.882;2023-02-24T00:13:59;100502.47;;;3.68;100.00
43770;BME280;6597;52.218;9.882;2023-02-24T00:16:26;100511.16;;;3.67;100.00
43770;BME280;6597;52.218;9.882;2023-02-24T00:18:54;100500.75;;;3.69;100.00
43770;BME280;6597;52.218;9.882;2023-02-24T00:21:21;100493.81;;;3.69;100.00
43770;BME280;6597;52.218;9.882;2023-02-24T00:23:47;100501.63;;;3.68;100.00
43770;BME280;6597;52.218;9.882;2023-02-24T00:26:15;100489.53;;;3.67;100.00
43770;BME280;6597;52.218;9.882;2023-02-24T00:28:42;100487.75;;;3.69;100.00
43770;BME280;6597;52.218;9.882;2023-02-24T00:31:11;100482.56;;;3.69;100.00
43770;BME280;6597;52.218;9.882;2023-02-24T00:33:39;100485.16;;;3.70;100.00
43770;BME280;6597;52.218;9.882;2023-02-24T00:36:10;100478.25;;;3.68;100.00
43770;BME280;6597;52.218;9.882;2023-02-24T00:38:37;100464.47;;;3.64;100.00
43770;BME280;6597;52.218;9.882;2023-02-24T00:41:08;100466.25;;;3.59;100.00
43770;BME280;6597;52.218;9.882;2023-02-24T00:43:36;100461.97;;;3.52;100.00
43770;BME280;6597;52.218;9.882;2023-02-24T00:46:03;100463.75;;;3.49;100.00
43770;BME280;6597;52.218;9.882;2023-02-24T00:48:38;100464.72;;;3.40;100.00
43770;BME280;6597;52.218;9.882;2023-02-24T00:51:09;100460.47;;;3.34;100.00
43770;BME280;6597;52.218;9.882;2023-02-24T00:53:36;100462.19;;;3.34;100.00
43770;BME280;6597;52.218;9.882;2023-02-24T00:56:04;100458.78;;;3.30;100.00
43770;BME280;6597;52.218;9.882;2023-02-24T00:58:32;100456.22;;;3.24;100.00
43770;BME280;6597;52.218;9.882;2023-02-24T01:01:00;100451.91;;;3.23;100.00
43770;BME280;6597;52.218;9.882;2023-02-24T01:03:27;100452.78;;;3.25;100.00
43770;BME280;6597;52.218;9.882;2023-02-24T01:05:59;100448.44;;;3.27;100.00
43770;BME280;6597;52.218;9.882;2023-02-24T01:08:30;100448.44;;;3.27;100.00
43770;BME280;6597;52.218;9.882;2023-02-24T01:11:01;100445.81;;;3.29;100.00
43770;BME280;6597;52.218;9.882;2023-02-24T01:13:46;100442.38;;;3.28;100.00
43770;BME280;6597;52.218;9.882;2023-02-24T01:16:13;100446.66;;;3.31;100.00
43770;BME280;6597;52.218;9.882;2023-02-24T01:18:44;100432.88;;;3.23;100.00
43770;BME280;6597;52.218;9.882;2023-02-24T01:21:12;100436.31;;;3.25;100.00
43770;BME280;6597;52.218;9.882;2023-02-24T01:23:40;100438.09;;;3.21;100.00
43770;BME280;6597;52.218;9.882;2023-02-24T01:26:07;100433.75;;;3.23;100.00
43770;BME280;6597;52.218;9.882;2023-02-24T01:28:34;100433.75;;;3.23;100.00
43770;BME280;6597;52.218;9.882;2023-02-24T01:31:03;100430.28;;;3.27;100.00
43770;BME280;6597;52.218;9.882;2023-02-24T01:33:30;100431.16;;;3.23;100.00
43770;BME280;6597;52.218;9.882;2023-02-24T01:36:07;100423.38;;;3.22;100.00
43770;BME280;6597;52.218;9.882;2023-02-24T01:38:34;100421.63;;;3.24;100.00
43770;BME280;6597;52.218;9.882;2023-02-24T01:41:03;100418.16;;;3.25;100.00
43770;BME280;6597;52.218;9.882;2023-02-24T01:43:30;100407.81;;;3.26;100.00
43770;BME280;6597;52.218;9.882;2023-02-24T01:45:57;100407.84;;;3.20;100.00
43770;BME280;6597;52.218;9.882;2023-02-24T01:48:24;100400.06;;;3.19;100.00
43770;BME280;6597;52.218;9.882;2023-02-24T01:50:52;100398.28;;;3.24;100.00
43770;BME280;6597;52.218;9.882;2023-02-24T01:53:19;100402.63;;;3.22;100.00
43770;BME280;6597;52.218;9.882;2023-02-24T01:55:47;100403.50;;;3.25;100.00
43770;BME280;6597;52.218;9.882;2023-02-24T01:58:21;100404.34;;;3.26;100.00
43770;BME280;6597;52.218;9.882;2023-02-24T02:00:50;100392.25;;;3.23;100.00
43770;BME280;6597;52.218;9.882;2023-02-24T02:03:22;100393.19;;;3.16;100.00
43770;BME280;6597;52.218;9.882;2023-02-24T02:05:51;100386.31;;;3.13;100.00
43770;BME280;6597;52.218;9.882;2023-02-24T02:08:20;100376.84;;;3.09;100.00
43770;BME280;6597;52.218;9.882;2023-02-24T02:10:48;100380.22;;;3.18;100.00
43770;BME280;6597;52.218;9.882;2023-02-24T02:13:19;100378.41;;;3.23;100.00
43770;BME280;6597;52.218;9.882;2023-02-24T02:15:55;100366.31;;;3.22;100.00
43770;BME280;6597;52.218;9.882;2023-02-24T02:18:31;100374.97;;;3.21;100.00
43770;BME280;6597;52.218;9.882;2023-02-24T02:21:26;100363.81;;;3.14;100.00
43770;BME280;6597;52.218;9.882;2023-02-24T02:24:03;100360.38;;;3.12;100.00
43770;BME280;6597;52.218;9.882;2023-02-24T02:30:07;100354.28;;;3.18;100.00
43770;BME280;6597;52.218;9.882;2023-02-24T02:32:54;100350.84;;;3.16;100.00
43770;BME280;6597;52.218;9.882;2023-02-24T02:35:35;100342.25;;;3.12;100.00
43770;BME280;6597;52.218;9.882;2023-02-24T02:38:10;100340.50;;;3.12;100.00
43770;BME280;6597;52.218;9.882;2023-02-24T02:40:45;100338.75;;;3.13;100.00
43770;BME280;6597;52.218;9.882;2023-02-24T02:43:17;100338.75;;;3.15;100.00
43770;BME280;6597;52.218;9.882;2023-02-24T02:45:52;100328.34;;;3.18;100.00
43770;BME280;6597;52.218;9.882;2023-02-24T02:48:26;100317.13;;;3.14;100.00
43770;BME280;6597;52.218;9.882;2023-02-24T02:51:03;100316.28;;;3.13;100.00
43770;BME280;6597;52.218;9.882;2023-02-24T02:53:35;100316.28;;;3.13;100.00
43770;BME280;6597;52.218;9.882;2023-02-24T02:56:09;100311.03;;;3.18;100.00
43770;BME280;6597;52.218;9.882;2023-02-24T02:58:42;100310.25;;;3.11;100.00
43770;BME280;6597;52.218;9.882;2023-02-24T03:01:12;100308.53;;;3.12;100.00
43770;BME280;6597;52.218;9.882;2023-02-24T03:03:43;100307.66;;;3.11;100.00
43770;BME280;6597;52.218;9.882;2023-02-24T03:06:18;100303.34;;;3.10;100.00
43770;BME280;6597;52.218;9.882;2023-02-24T03:08:50;100300.78;;;3.09;100.00
43770;BME280;6597;52.218;9.882;2023-02-24T03:11:19;100299.91;;;3.10;100.00
43770;BME280;6597;52.218;9.882;2023-02-24T03:13:47;100294.69;;;3.11;100.00
43770;BME280;6597;52.218;9.882;2023-02-24T03:16:16;100288.69;;;3.09;100.00
43770;BME280;6597;52.218;9.882;2023-02-24T03:18:46;100286.91;;;3.11;100.00
43770;BME280;6597;52.218;9.882;2023-02-24T03:21:18;100288.63;;;3.12;100.00
43770;BME280;6597;52.218;9.882;2023-02-24T03:23:51;100275.66;;;3.14;100.00
43770;BME280;6597;52.218;9.882;2023-02-24T03:26:24;100282.59;;;3.10;100.00
43770;BME280;6597;52.218;9.882;2023-02-24T03:28:57;100277.38;;;3.15;100.00
43770;BME280;6597;52.218;9.882;2023-02-24T03:31:32;100273.94;;;3.13;100.00
43770;BME280;6597;52.218;9.882;2023-02-24T03:34:05;100270.53;;;3.08;100.00
43770;BME280;6597;52.218;9.882;2023-02-24T03:36:36;100261.94;;;3.06;100.00
43770;BME280;6597;52.218;9.882;2023-02-24T03:39:04;100249.78;;;3.09;100.00
43770;BME280;6597;52.218;9.882;2023-02-24T03:41:42;100257.56;;;3.08;100.00
43770;BME280;6597;52.218;9.882;2023-02-24T03:44:10;100251.47;;;3.12;99.63
43770;BME280;6597;52.218;9.882;2023-02-24T03:46:37;100246.31;;;3.09;98.74
43770;BME280;6597;52.218;9.882;2023-02-24T03:49:09;100248.09;;;3.07;95.43
43770;BME280;6597;52.218;9.882;2023-02-24T03:52:01;100237.69;;;3.08;96.21
43770;BME280;6597;52.218;9.882;2023-02-24T03:54:46;100231.66;;;3.06;95.68
43770;BME280;6597;52.218;9.882;2023-02-24T03:57:27;100241.16;;;3.07;96.01
43770;BME280;6597;52.218;9.882;2023-02-24T04:00:00;100221.34;;;3.03;95.77
43770;BME280;6597;52.218;9.882;2023-02-24T04:03:01;100236.94;;;3.00;92.85
43770;BME280;6597;52.218;9.882;2023-02-24T04:05:32;100238.63;;;3.03;91.69
43770;BME280;6597;52.218;9.882;2023-02-24T04:08:07;100228.28;;;3.00;89.73
43770;BME280;6597;52.218;9.882;2023-02-24T04:10:37;100230.94;;;2.97;90.21
43770;BME280;6597;52.218;9.882;2023-02-24T04:13:14;100231.84;;;2.90;90.15
43770;BME280;6597;52.218;9.882;2023-02-24T04:15:49;100229.31;;;2.87;90.27
43770;BME280;6597;52.218;9.882;2023-02-24T04:18:24;100232.75;;;2.87;91.17
43770;BME280;6597;52.218;9.882;2023-02-24T04:20:53;100226.78;;;2.82;91.32
43770;BME280;6597;52.218;9.882;2023-02-24T04:23:25;100212.97;;;2.80;91.88
43770;BME280;6597;52.218;9.882;2023-02-24T04:25:56;100225.91;;;2.81;92.03
43770;BME280;6597;52.218;9.882;2023-02-24T04:28:24;100217.38;;;2.75;92.15
43770;BME280;6597;52.218;9.882;2023-02-24T04:30:58;100213.94;;;2.73;92.94
43770;BME280;6597;52.218;9.882;2023-02-24T04:33:25;100211.38;;;2.71;92.62
43770;BME280;6597;52.218;9.882;2023-02-24T04:35:52;100208.78;;;2.70;92.70
43770;BME280;6597;52.218;9.882;2023-02-24T04:38:20;100212.22;;;2.72;92.09
43770;BME280;6597;52.218;9.882;2023-02-24T04:40:49;100198.44;;;2.70;91.53
43770;BME280;6597;52.218;9.882;2023-02-24T04:43:16;100209.59;;;2.73;91.16
43770;BME280;6597;52.218;9.882;2023-02-24T04:45:43;100214.78;;;2.75;90.45
43770;BME280;6597;52.218;9.882;2023-02-24T04:48:10;100212.13;;;2.79;89.60
43770;BME280;6597;52.218;9.882;2023-02-24T04:50:39;100194.84;;;2.80;88.57
43770;BME280;6597;52.218;9.882;2023-02-24T04:53:08;100209.56;;;2.78;88.45
43770;BME280;6597;52.218;9.882;2023-02-24T04:55:38;100191.44;;;2.75;87.76
43770;BME280;6597;52.218;9.882;2023-02-24T04:58:09;100195.75;;;2.76;87.28
43770;BME280;6597;52.218;9.882;2023-02-24T05:00:36;100190.59;;;2.74;87.17
43770;BME280;6597;52.218;9.882;2023-02-24T05:03:06;100187.09;;;2.77;87.37
43770;BME280;6597;52.218;9.882;2023-02-24T05:05:33;100193.13;;;2.77;87.92
43770;BME280;6597;52.218;9.882;2023-02-24T05:08:02;100183.72;;;2.70;87.44
43770;BME280;6597;52.218;9.882;2023-02-24T05:10:29;100180.28;;;2.70;86.85
43770;BME280;6597;52.218;9.882;2023-02-24T05:12:57;100175.13;;;2.67;85.92
43770;BME280;6597;52.218;9.882;2023-02-24T05:15:26;100171.69;;;2.66;86.39
43770;BME280;6597;52.218;9.882;2023-02-24T05:17:57;100169.06;;;2.69;87.10
43770;BME280;6597;52.218;9.882;2023-02-24T05:20:24;100164.78;;;2.65;86.56
43770;BME280;6597;52.218;9.882;2023-02-24T05:23:08;100156.19;;;2.63;88.27
43770;BME280;6597;52.218;9.882;2023-02-24T05:25:35;100148.44;;;2.62;86.13
43770;BME280;6597;52.218;9.882;2023-02-24T05:28:03;100151.84;;;2.64;84.10
43770;BME280;6597;52.218;9.882;2023-02-24T05:30:31;100155.34;;;2.61;83.53
43770;BME280;6597;52.218;9.882;2023-02-24T05:32:58;100144.09;;;2.62;84.96
43770;BME280;6597;52.218;9.882;2023-02-24T05:35:25;100126.84;;;2.60;83.79
43770;BME280;6597;52.218;9.882;2023-02-24T05:37:52;100125.13;;;2.59;83.85
43770;BME280;6597;52.218;9.882;2023-02-24T05:40:21;100125.16;;;2.56;84.61
43770;BME280;6597;52.218;9.882;2023-02-24T05:42:49;100120.81;;;2.58;85.39
43770;BME280;6597;52.218;9.882;2023-02-24T05:45:17;100119.97;;;2.56;84.97
43770;BME280;6597;52.218;9.882;2023-02-24T05:47:44;100111.38;;;2.54;84.75
43770;BME280;6597;52.218;9.882;2023-02-24T05:50:12;100112.28;;;2.51;85.03
43770;BME280;6597;52.218;9.882;2023-02-24T05:52:38;100100.16;;;2.53;85.42
43770;BME280;6597;52.218;9.882;2023-02-24T05:55:05;100099.38;;;2.46;84.84
43770;BME280;6597;52.218;9.882;2023-02-24T05:57:38;100087.31;;;2.45;85.75
43770;BME280;6597;52.218;9.882;2023-02-24T06:00:07;100098.53;;;2.46;85.05
43770;BME280;6597;52.218;9.882;2023-02-24T06:02:41;100085.63;;;2.43;85.46
43770;BME280;6597;52.218;9.882;2023-02-24T06:05:16;100078.66;;;2.46;84.06
43770;BME280;6597;52.218;9.882;2023-02-24T06:07:54;100077.03;;;2.39;83.90
43770;BME280;6597;52.218;9.882;2023-02-24T06:10:28;100071.81;;;2.41;85.27
43770;BME280;6597;52.218;9.882;2023-02-24T06:12:57;100076.16;;;2.40;86.33
43770;BME280;6597;52.218;9.882;2023-02-24T06:15:25;100061.47;;;2.41;85.51
43770;BME280;6597;52.218;9.882;2023-02-24T06:17:51;100057.16;;;2.40;85.83
43770;BME280;6597;52.218;9.882;2023-02-24T06:20:22;100057.13;;;2.43;87.24
43770;BME280;6597;52.218;9.882;2023-02-24T06:22:51;100051.06;;;2.44;87.00
43770;BME280;6597;52.218;9.882;2023-02-24T06:25:19;100051.09;;;2.42;86.28
43770;BME280;6597;52.218;9.882;2023-02-24T06:27:50;100050.22;;;2.42;87.07
43770;BME280;6597;52.218;9.882;2023-02-24T06:30:20;100039.91;;;2.39;87.98
43770;BME280;6597;52.218;9.882;2023-02-24T06:32:47;100048.50;;;2.41;88.05
43770;BME280;6597;52.218;9.882;2023-02-24T06:35:14;100036.41;;;2.43;88.88
43770;BME280;6597;52.218;9.882;2023-02-24T06:37:42;100031.22;;;2.43;89.35
43770;BME280;6597;52.218;9.882;2023-02-24T06:40:10;100028.69;;;2.38;89.56
43770;BME280;6597;52.218;9.882;2023-02-24T06:42:43;100014.91;;;2.36;89.85
43770;BME280;6597;52.218;9.882;2023-02-24T06:45:11;100018.34;;;2.37;88.38
43770;BME280;6597;52.218;9.882;2023-02-24T06:47:38;100013.19;;;2.37;88.93
43770;BME280;6597;52.218;9.882;2023-02-24T06:50:05;100005.38;;;2.38;88.08
43770;BME280;6597;52.218;9.882;2023-02-24T06:52:32;100015.78;;;2.35;87.91
43770;BME280;6597;52.218;9.882;2023-02-24T06:55:00;100016.66;;;2.34;87.89
43770;BME280;6597;52.218;9.882;2023-02-24T06:57:29;100010.66;;;2.32;87.60
43770;BME280;6597;52.218;9.882;2023-02-24T06:59:57;100002.88;;;2.32;87.85
43770;BME280;6597;52.218;9.882;2023-02-24T07:02:23;100000.28;;;2.34;87.93
43770;BME280;6597;52.218;9.882;2023-02-24T07:04:57;100008.81;;;2.39;87.79
43770;BME280;6597;52.218;9.882;2023-02-24T07:07:24;100004.53;;;2.38;87.18
43770;BME280;6597;52.218;9.882;2023-02-24T07:09:53;100003.66;;;2.37;87.72
43770;BME280;6597;52.218;9.882;2023-02-24T07:12:21;99991.56;;;2.38;87.35
43770;BME280;6597;52.218;9.882;2023-02-24T07:14:48;99991.50;;;2.42;86.40
43770;BME280;6597;52.218;9.882;2023-02-24T07:17:16;99984.59;;;2.43;87.25
43770;BME280;6597;52.218;9.882;2023-02-24T07:19:44;99977.59;;;2.48;86.79
43770;BME280;6597;52.218;9.882;2023-02-24T07:22:10;99977.63;;;2.46;86.11
43770;BME280;6597;52.218;9.882;2023-02-24T07:24:41;99969.00;;;2.46;85.46
43770;BME280;6597;52.218;9.882;2023-02-24T07:27:12;99968.97;;;2.49;86.23
43770;BME280;6597;52.218;9.882;2023-02-24T07:29:48;99963.72;;;2.52;86.47
43770;BME280;6597;52.218;9.882;2023-02-24T07:32:15;99961.97;;;2.54;85.36
43770;BME280;6597;52.218;9.882;2023-02-24T07:34:43;99959.31;;;2.57;85.18
43770;BME280;6597;52.218;9.882;2023-02-24T07:37:10;99954.97;;;2.59;85.04
43770;BME280;6597;52.218;9.882;2023-02-24T07:39:38;99948.97;;;2.57;84.63
43770;BME280;6597;52.218;9.882;2023-02-24T07:42:05;99951.53;;;2.60;84.78
43770;BME280;6597;52.218;9.882;2023-02-24T07:44:41;99946.31;;;2.63;83.91
43770;BME280;6597;52.218;9.882;2023-02-24T07:47:11;99925.53;;;2.66;83.42
43770;BME280;6597;52.218;9.882;2023-02-24T07:49:39;99929.00;;;2.65;83.92
43770;BME280;6597;52.218;9.882;2023-02-24T07:52:06;99915.97;;;2.68;84.20
43770;BME280;6597;52.218;9.882;2023-02-24T07:54:36;99920.28;;;2.69;84.43
43770;BME280;6597;52.218;9.882;2023-02-24T07:57:04;99908.97;;;2.75;83.56
43770;BME280;6597;52.218;9.882;2023-02-24T07:59:37;99911.53;;;2.76;83.11
43770;BME280;6597;52.218;9.882;2023-02-24T08:02:04;99901.97;;;2.80;83.40
43770;BME280;6597;52.218;9.882;2023-02-24T08:04:33;99915.75;;;2.82;83.85
43770;BME280;6597;52.218;9.882;2023-02-24T08:07:00;99914.84;;;2.83;83.72
43770;BME280;6597;52.218;9.882;2023-02-24T08:09:29;99900.25;;;2.79;82.82
43770;BME280;6597;52.218;9.882;2023-02-24T08:12:16;99901.09;;;2.79;83.10
43770;BME280;6597;52.218;9.882;2023-02-24T08:14:43;99892.41;;;2.82;82.76
43770;BME280;6597;52.218;9.882;2023-02-24T08:17:15;99891.47;;;2.86;82.54
43770;BME280;6597;52.218;9.882;2023-02-24T08:19:46;99875.91;;;2.88;83.43
43770;BME280;6597;52.218;9.882;2023-02-24T08:22:14;99878.44;;;2.91;82.62
43770;BME280;6597;52.218;9.882;2023-02-24T08:24:51;99875.88;;;2.89;82.18
43770;BME280;6597;52.218;9.882;2023-02-24T08:27:19;99870.56;;;2.97;83.37
43770;BME280;6597;52.218;9.882;2023-02-24T08:29:49;99859.38;;;2.95;82.68
43770;BME280;6597;52.218;9.882;2023-02-24T08:32:29;99861.13;;;2.91;82.49
43770;BME280;6597;52.218;9.882;2023-02-24T08:35:00;99849.91;;;2.91;83.83
43770;BME280;6597;52.218;9.882;2023-02-24T08:37:29;99852.44;;;2.95;83.64
43770;BME280;6597;52.218;9.882;2023-02-24T08:40:05;99845.53;;;2.96;83.57
43770;BME280;6597;52.218;9.882;2023-02-24T08:42:42;99840.34;;;2.96;83.78
43770;BME280;6597;52.218;9.882;2023-02-24T08:45:08;99838.56;;;2.98;84.12
43770;BME280;6597;52.218;9.882;2023-02-24T08:47:35;99843.78;;;2.96;84.84
43770;BME280;6597;52.218;9.882;2023-02-24T08:50:03;99834.34;;;2.94;84.35
43770;BME280;6597;52.218;9.882;2023-02-24T08:52:31;99833.34;;;3.01;84.68
43770;BME280;6597;52.218;9.882;2023-02-24T08:54:59;99824.78;;;2.96;84.69
43770;BME280;6597;52.218;9.882;2023-02-24T08:57:26;99817.84;;;2.98;85.42
43770;BME280;6597;52.218;9.882;2023-02-24T08:59:52;99823.09;;;2.95;85.24
43770;BME280;6597;52.218;9.882;2023-02-24T09:02:24;99827.31;;;2.99;85.41
43770;BME280;6597;52.218;9.882;2023-02-24T09:04:53;99816.09;;;2.98;85.32
43770;BME280;6597;52.218;9.882;2023-02-24T09:07:23;99809.19;;;2.99;85.62
43770;BME280;6597;52.218;9.882;2023-02-24T09:09:50;99803.09;;;3.00;85.73
43770;BME280;6597;52.218;9.882;2023-02-24T09:12:21;99809.94;;;3.04;85.89
43770;BME280;6597;52.218;9.882;2023-02-24T09:14:50;99801.38;;;3.00;84.83
43770;BME280;6597;52.218;9.882;2023-02-24T09:17:20;99801.50;;;2.94;86.26
43770;BME280;6597;52.218;9.882;2023-02-24T09:20:06;99804.88;;;2.98;87.96
43770;BME280;6597;52.218;9.882;2023-02-24T09:23:21;99787.66;;;2.95;88.87
43770;BME280;6597;52.218;9.882;2023-02-24T09:25:55;99795.50;;;2.89;90.24
43770;BME280;6597;52.218;9.882;2023-02-24T09:28:24;99789.84;;;2.70;91.50
43770;BME280;6597;52.218;9.882;2023-02-24T09:30:52;99791.69;;;2.64;93.58
43770;BME280;6597;52.218;9.882;2023-02-24T09:33:22;99788.22;;;2.65;95.08
43770;BME280;6597;52.218;9.882;2023-02-24T09:35:54;99772.63;;;2.68;95.84
43770;BME280;6597;52.218;9.882;2023-02-24T09:38:29;99780.41;;;2.66;96.27
43770;BME280;6597;52.218;9.882;2023-02-24T09:41:21;99760.59;;;2.64;96.91
43770;BME280;6597;52.218;9.882;2023-02-24T09:43:57;99759.81;;;2.59;97.05
43770;BME280;6597;52.218;9.882;2023-02-24T09:46:30;99765.81;;;2.62;97.67
43770;BME280;6597;52.218;9.882;2023-02-24T09:49:02;99754.66;;;2.57;97.87
43770;BME280;6597;52.218;9.882;2023-02-24T09:51:33;99744.28;;;2.57;97.87
43770;BME280;6597;52.218;9.882;2023-02-24T09:54:13;99749.63;;;2.49;99.17
43770;BME280;6597;52.218;9.882;2023-02-24T09:56:43;99747.88;;;2.50;100.00
43770;BME280;6597;52.218;9.882;2023-02-24T09:59:18;99742.56;;;2.58;99.68
43770;BME280;6597;52.218;9.882;2023-02-24T10:01:55;99733.78;;;2.66;100.00
43770;BME280;6597;52.218;9.882;2023-02-24T10:04:51;99736.34;;;2.68;99.09
43770;BME280;6597;52.218;9.882;2023-02-24T10:07:26;99729.44;;;2.67;99.04
43770;BME280;6597;52.218;9.882;2023-02-24T10:09:58;99729.41;;;2.68;99.37
43770;BME280;6597;52.218;9.882;2023-02-24T10:12:46;99717.25;;;2.72;99.27
43770;BME280;6597;52.218;9.882;2023-02-24T10:15:17;99713.88;;;2.68;98.99
43770;BME280;6597;52.218;9.882;2023-02-24T10:18:24;99706.06;;;2.70;100.00
43770;BME280;6597;52.218;9.882;2023-02-24T10:20:53;99705.34;;;2.63;100.00
43770;BME280;6597;52.218;9.882;2023-02-24T10:23:28;99701.03;;;2.62;100.00
43770;BME280;6597;52.218;9.882;2023-02-24T10:26:03;99697.66;;;2.57;100.00
43770;BME280;6597;52.218;9.882;2023-02-24T10:28:37;99694.38;;;2.49;100.00
43770;BME280;6597;52.218;9.882;2023-02-24T10:31:10;99692.78;;;2.42;100.00
43770;BME280;6597;52.218;9.882;2023-02-24T10:33:51;99694.56;;;2.40;100.00
43770;BME280;6597;52.218;9.882;2023-02-24T10:36:22;99688.41;;;2.45;100.00
43770;BME280;6597;52.218;9.882;2023-02-24T10:38:55;99677.25;;;2.42;100.00
43770;BME280;6597;52.218;9.882;2023-02-24T10:41:26;99682.53;;;2.37;100.00
43770;BME280;6597;52.218;9.882;2023-02-24T10:43:54;99672.22;;;2.34;100.00
43770;BME280;6597;52.218;9.882;2023-02-24T10:46:25;99667.91;;;2.35;100.00
43770;BME280;6597;52.218;9.882;2023-02-24T10:48:59;99666.06;;;2.40;100.00
43770;BME280;6597;52.218;9.882;2023-02-24T10:51:29;99656.59;;;2.39;100.00
43770;BME280;6597;52.218;9.882;2023-02-24T10:54:11;99653.31;;;2.31;100.00
43770;BME280;6597;52.218;9.882;2023-02-24T10:56:56;99652.47;;;2.27;100.00
43770;BME280;6597;52.218;9.882;2023-02-24T10:59:44;99642.19;;;2.24;100.00
43770;BME280;6597;52.218;9.882;2023-02-24T11:02:24;99637.84;;;2.25;100.00
43770;BME280;6597;52.218;9.882;2023-02-24T11:04:58;99615.53;;;2.19;100.00
43770;BME280;6597;52.218;9.882;2023-02-24T11:07:50;99615.53;;;2.19;100.00
43770;BME280;6597;52.218;9.882;2023-02-24T11:10:22;99606.03;;;2.19;100.00
43770;BME280;6597;52.218;9.882;2023-02-24T11:12:59;99599.78;;;2.31;100.00
43770;BME280;6597;52.218;9.882;2023-02-24T11:15:46;99602.00;;;2.48;100.00
43770;BME280;6597;52.218;9.882;2023-02-24T11:18:32;99584.41;;;2.64;100.00
43770;BME280;6597;52.218;9.882;2023-02-24T11:21:01;99585.19;;;2.67;100.00
43770;BME280;6597;52.218;9.882;2023-02-24T11:23:32;99579.19;;;2.65;100.00
43770;BME280;6597;52.218;9.882;2023-02-24T11:26:02;99570.81;;;2.53;100.00
43770;BME280;6597;52.218;9.882;2023-02-24T11:29:02;99567.63;;;2.41;100.00
43770;BME280;6597;52.218;9.882;2023-02-24T11:31:41;99559.94;;;2.37;100.00
43770;BME280;6597;52.218;9.882;2023-02-24T11:34:17;99555.81;;;2.27;100.00
43770;BME280;6597;52.218;9.882;2023-02-24T11:36:56;99548.09;;;2.25;100.00
43770;BME280;6597;52.218;9.882;2023-02-24T11:39:39;99544.59;;;2.28;100.00
43770;BME280;6597;52.218;9.882;2023-02-24T11:42:12;99535.13;;;2.25;100.00
43770;BME280;6597;52.218;9.882;2023-02-24T11:44:49;99520.50;;;2.24;100.00
43770;BME280;6597;52.218;9.882;2023-02-24T11:47:19;99520.63;;;2.18;100.00
43770;BME280;6597;52.218;9.882;2023-02-24T11:49:49;99511.19;;;2.15;100.00
43770;BME280;6597;52.218;9.882;2023-02-24T11:52:19;99508.56;;;2.17;100.00
43770;BME280;6597;52.218;9.882;2023-02-24T11:54:53;99502.53;;;2.16;100.00
43770;BME280;6597;52.218;9.882;2023-02-24T11:57:27;99497.47;;;2.12;100.00
43770;BME280;6597;52.218;9.882;2023-02-24T12:00:04;99483.63;;;2.13;100.00
43770;BME280;6597;52.218;9.882;2023-02-24T12:02:45;99480.97;;;2.16;100.00
43770;BME280;6597;52.218;9.882;2023-02-24T12:05:16;99477.59;;;2.12;100.00
43770;BME280;6597;52.218;9.882;2023-02-24T12:07:47;99474.06;;;2.16;100.00
43770;BME280;6597;52.218;9.882;2023-02-24T12:10:18;99469.72;;;2.17;100.00
43770;BME280;6597;52.218;9.882;2023-02-24T12:12:49;99474.00;;;2.19;100.00
43770;BME280;6597;52.218;9.882;2023-02-24T12:15:23;99455.19;;;2.11;100.00
43770;BME280;6597;52.218;9.882;2023-02-24T12:17:56;99456.88;;;2.12;100.00
43770;BME280;6597;52.218;9.882;2023-02-24T12:20:28;99457.00;;;2.08;100.00
43770;BME280;6597;52.218;9.882;2023-02-24T12:23:01;99454.47;;;2.05;100.00
43770;BME280;6597;52.218;9.882;2023-02-24T12:25:38;99446.75;;;2.03;100.00
43770;BME280;6597;52.218;9.882;2023-02-24T12:28:14;99446.75;;;2.03;100.00
43770;BME280;6597;52.218;9.882;2023-02-24T12:30:59;99446.81;;;2.00;100.00
43770;BME280;6597;52.218;9.882;2023-02-24T12:33:46;99437.34;;;1.99;100.00
43770;BME280;6597;52.218;9.882;2023-02-24T12:36:34;99428.75;;;1.97;100.00
43770;BME280;6597;52.218;9.882;2023-02-24T12:39:10;99421.78;;;2.01;100.00
43770;BME280;6597;52.218;9.882;2023-02-24T12:41:51;99431.34;;;1.97;100.00
43770;BME280;6597;52.218;9.882;2023-02-24T12:44:29;99427.13;;;1.92;100.00
43770;BME280;6597;52.218;9.882;2023-02-24T12:47:04;99416.78;;;1.92;100.00
43770;BME280;6597;52.218;9.882;2023-02-24T12:49:43;99416.00;;;1.88;100.00
43770;BME280;6597;52.218;9.882;2023-02-24T12:52:19;99419.47;;;1.87;100.00
43770;BME280;6597;52.218;9.882;2023-02-24T12:54:54;99415.25;;;1.83;100.00
43770;BME280;6597;52.218;9.882;2023-02-24T12:57:27;99420.53;;;1.78;100.00
43770;BME280;6597;52.218;9.882;2023-02-24T13:00:04;99426.66;;;1.74;100.00
43770;BME280;6597;52.218;9.882;2023-02-24T13:02:51;99410.38;;;1.69;100.00
43770;BME280;6597;52.218;9.882;2023-02-24T13:05:23;99403.47;;;1.70;100.00
43770;BME280;6597;52.218;9.882;2023-02-24T13:11:01;99398.22;;;1.73;100.00
43770;BME280;6597;52.218;9.882;2023-02-24T13:13:33;99396.59;;;1.69;100.00
43770;BME280;6597;52.218;9.882;2023-02-24T13:16:02;99385.31;;;1.71;100.00
43770;BME280;6597;52.218;9.882;2023-02-24T13:18:32;99381.03;;;1.70;100.00
43770;BME280;6597;52.218;9.882;2023-02-24T13:21:05;99370.75;;;1.67;100.00
43770;BME280;6597;52.218;9.882;2023-02-24T13:23:34;99371.47;;;1.74;100.00
43770;BME280;6597;52.218;9.882;2023-02-24T13:26:01;99363.59;;;1.78;100.00
43770;BME280;6597;52.218;9.882;2023-02-24T13:28:30;99359.31;;;1.77;100.00
43770;BME280;6597;52.218;9.882;2023-02-24T13:30:59;99355.75;;;1.83;100.00
43770;BME280;6597;52.218;9.882;2023-02-24T13:33:29;99352.31;;;1.82;100.00
43770;BME280;6597;52.218;9.882;2023-02-24T13:36:22;99347.16;;;1.81;100.00
43770;BME280;6597;52.218;9.882;2023-02-24T13:38:50;99337.78;;;1.77;100.00
43770;BME280;6597;52.218;9.882;2023-02-24T13:41:35;99346.38;;;1.77;100.00
43770;BME280;6597;52.218;9.882;2023-02-24T13:44:20;99338.59;;;1.79;100.00